Colebrook, New Hampshire
Current Conditions -  °F | °C
As of 2:09 PM on Friday 24 Oct 2014 (Local Time) from KBML Reporting Station
Overcast Overcast  
Wind Chill: 45°   Ceiling: 1700
Heat Index: 47°   Visibility: 10mi
Dew Point: 42°   Wind: 5mph
Humidity: 83%   Direction: 320°NW
Pressure: 29.72"   Gusts: NA
Location:  44.89°N, 71.48°W
Report Text: KBML 241809Z AUTO 32004KT 10SM OVC017 08/06 A2972 RMK AO2 T00830056
Loading
Personal Weather Stations






























Interactive Weather Map
Tropical Storm Tracking
New forecast layout! Learn more

10-Day Weather Forecast

Advertisements
Track Severe Weather on mobile